sensor_id;sensor_type;location;lat;lon;timestamp;P1;durP1;ratioP1;P2;durP2;ratioP2
34902;SDS011;21114;44.840;0.214;2023-04-03T00:00:18;1.77;;;0.95;;
34902;SDS011;21114;44.840;0.214;2023-04-03T00:02:45;1.80;;;1.17;;
34902;SDS011;21114;44.840;0.214;2023-04-03T00:05:11;2.08;;;1.20;;
34902;SDS011;21114;44.840;0.214;2023-04-03T00:07:37;2.33;;;1.45;;
34902;SDS011;21114;44.840;0.214;2023-04-03T00:10:03;3.38;;;1.23;;
34902;SDS011;21114;44.840;0.214;2023-04-03T00:13:18;1.15;;;0.93;;
34902;SDS011;21114;44.840;0.214;2023-04-03T00:15:44;1.98;;;1.42;;
34902;SDS011;21114;44.840;0.214;2023-04-03T00:18:10;1.15;;;0.90;;
34902;SDS011;21114;44.840;0.214;2023-04-03T00:20:36;1.02;;;0.90;;
34902;SDS011;21114;44.840;0.214;2023-04-03T00:23:02;2.08;;;1.60;;
34902;SDS011;21114;44.840;0.214;2023-04-03T00:25:28;3.47;;;1.30;;
34902;SDS011;21114;44.840;0.214;2023-04-03T00:27:55;3.55;;;1.45;;
34902;SDS011;21114;44.840;0.214;2023-04-03T00:30:22;1.40;;;1.30;;
34902;SDS011;21114;44.840;0.214;2023-04-03T00:33:31;1.83;;;1.02;;
34902;SDS011;21114;44.840;0.214;2023-04-03T00:35:57;2.70;;;1.23;;
34902;SDS011;21114;44.840;0.214;2023-04-03T00:38:24;3.92;;;1.98;;
34902;SDS011;21114;44.840;0.214;2023-04-03T00:40:50;3.10;;;1.35;;
34902;SDS011;21114;44.840;0.214;2023-04-03T00:43:17;1.52;;;1.00;;
34902;SDS011;21114;44.840;0.214;2023-04-03T00:46:29;1.42;;;1.05;;
34902;SDS011;21114;44.840;0.214;2023-04-03T00:48:55;2.17;;;0.88;;
34902;SDS011;21114;44.840;0.214;2023-04-03T00:51:23;1.75;;;1.45;;
34902;SDS011;21114;44.840;0.214;2023-04-03T00:54:38;2.30;;;1.17;;
34902;SDS011;21114;44.840;0.214;2023-04-03T00:57:30;1.80;;;1.20;;
34902;SDS011;21114;44.840;0.214;2023-04-03T01:00:46;1.83;;;1.23;;
34902;SDS011;21114;44.840;0.214;2023-04-03T01:04:02;2.33;;;1.17;;
34902;SDS011;21114;44.840;0.214;2023-04-03T01:07:18;3.05;;;1.25;;
34902;SDS011;21114;44.840;0.214;2023-04-03T01:10:33;1.70;;;1.17;;
34902;SDS011;21114;44.840;0.214;2023-04-03T01:13:00;2.53;;;1.63;;
34902;SDS011;21114;44.840;0.214;2023-04-03T01:15:27;2.30;;;1.40;;
34902;SDS011;21114;44.840;0.214;2023-04-03T01:18:41;3.50;;;1.20;;
34902;SDS011;21114;44.840;0.214;2023-04-03T01:23:53;1.27;;;0.93;;
34902;SDS011;21114;44.840;0.214;2023-04-03T01:27:12;1.83;;;1.38;;
34902;SDS011;21114;44.840;0.214;2023-04-03T01:29:38;1.13;;;0.95;;
34902;SDS011;21114;44.840;0.214;2023-04-03T01:32:53;1.85;;;1.33;;
34902;SDS011;21114;44.840;0.214;2023-04-03T01:35:19;2.90;;;1.00;;
34902;SDS011;21114;44.840;0.214;2023-04-03T01:37:45;1.73;;;1.42;;
34902;SDS011;21114;44.840;0.214;2023-04-03T01:40:11;2.08;;;1.13;;
34902;SDS011;21114;44.840;0.214;2023-04-03T01:42:37;1.85;;;1.27;;
34902;SDS011;21114;44.840;0.214;2023-04-03T01:45:52;2.13;;;1.50;;
34902;SDS011;21114;44.840;0.214;2023-04-03T01:48:19;1.90;;;1.23;;
34902;SDS011;21114;44.840;0.214;2023-04-03T01:50:45;1.48;;;1.27;;
34902;SDS011;21114;44.840;0.214;2023-04-03T01:53:12;2.47;;;1.48;;
34902;SDS011;21114;44.840;0.214;2023-04-03T01:56:27;1.92;;;1.17;;
34902;SDS011;21114;44.840;0.214;2023-04-03T01:59:41;1.95;;;1.35;;
34902;SDS011;21114;44.840;0.214;2023-04-03T02:02:08;1.38;;;1.27;;
34902;SDS011;21114;44.840;0.214;2023-04-03T02:04:34;2.55;;;1.10;;
34902;SDS011;21114;44.840;0.214;2023-04-03T02:07:00;2.05;;;1.42;;
34902;SDS011;21114;44.840;0.214;2023-04-03T02:09:26;1.45;;;1.30;;
34902;SDS011;21114;44.840;0.214;2023-04-03T02:11:52;1.70;;;1.20;;
34902;SDS011;21114;44.840;0.214;2023-04-03T02:14:18;4.13;;;1.20;;
34902;SDS011;21114;44.840;0.214;2023-04-03T02:16:46;2.03;;;1.80;;
34902;SDS011;21114;44.840;0.214;2023-04-03T02:19:12;1.88;;;1.42;;
34902;SDS011;21114;44.840;0.214;2023-04-03T02:21:39;3.30;;;1.55;;
34902;SDS011;21114;44.840;0.214;2023-04-03T02:24:05;1.45;;;1.25;;
34902;SDS011;21114;44.840;0.214;2023-04-03T02:26:31;2.42;;;1.55;;
34902;SDS011;21114;44.840;0.214;2023-04-03T02:28:57;2.55;;;1.70;;
34902;SDS011;21114;44.840;0.214;2023-04-03T02:31:23;2.30;;;1.77;;
34902;SDS011;21114;44.840;0.214;2023-04-03T02:33:49;3.75;;;1.38;;
34902;SDS011;21114;44.840;0.214;2023-04-03T02:36:15;2.22;;;1.77;;
34902;SDS011;21114;44.840;0.214;2023-04-03T02:38:42;2.90;;;2.55;;
34902;SDS011;21114;44.840;0.214;2023-04-03T02:41:09;2.72;;;1.45;;
34902;SDS011;21114;44.840;0.214;2023-04-03T02:44:26;2.20;;;1.65;;
34902;SDS011;21114;44.840;0.214;2023-04-03T02:46:52;2.45;;;2.03;;
34902;SDS011;21114;44.840;0.214;2023-04-03T02:49:18;2.35;;;1.70;;
34902;SDS011;21114;44.840;0.214;2023-04-03T02:51:44;3.83;;;2.17;;
34902;SDS011;21114;44.840;0.214;2023-04-03T02:54:10;3.30;;;1.95;;
34902;SDS011;21114;44.840;0.214;2023-04-03T02:56:37;2.47;;;1.40;;
34902;SDS011;21114;44.840;0.214;2023-04-03T02:59:03;2.92;;;2.53;;
34902;SDS011;21114;44.840;0.214;2023-04-03T03:01:30;1.83;;;1.60;;
34902;SDS011;21114;44.840;0.214;2023-04-03T03:04:45;7.72;;;2.10;;
34902;SDS011;21114;44.840;0.214;2023-04-03T03:07:11;3.08;;;2.30;;
34902;SDS011;21114;44.840;0.214;2023-04-03T03:09:37;5.25;;;2.15;;
34902;SDS011;21114;44.840;0.214;2023-04-03T03:12:03;2.28;;;1.90;;
34902;SDS011;21114;44.840;0.214;2023-04-03T03:14:29;4.22;;;2.33;;
34902;SDS011;21114;44.840;0.214;2023-04-03T03:16:55;2.47;;;2.00;;
34902;SDS011;21114;44.840;0.214;2023-04-03T03:19:21;1.95;;;1.52;;
34902;SDS011;21114;44.840;0.214;2023-04-03T03:21:47;3.78;;;1.67;;
34902;SDS011;21114;44.840;0.214;2023-04-03T03:24:14;4.00;;;2.35;;
34902;SDS011;21114;44.840;0.214;2023-04-03T03:27:28;4.07;;;1.70;;
34902;SDS011;21114;44.840;0.214;2023-04-03T03:30:23;3.92;;;1.90;;
34902;SDS011;21114;44.840;0.214;2023-04-03T03:32:49;2.67;;;1.83;;
34902;SDS011;21114;44.840;0.214;2023-04-03T03:35:15;5.03;;;2.35;;
34902;SDS011;21114;44.840;0.214;2023-04-03T03:37:41;2.40;;;1.90;;
34902;SDS011;21114;44.840;0.214;2023-04-03T03:40:07;4.05;;;2.80;;
34902;SDS011;21114;44.840;0.214;2023-04-03T03:42:34;3.22;;;2.63;;
34902;SDS011;21114;44.840;0.214;2023-04-03T03:45:00;3.03;;;1.67;;
34902;SDS011;21114;44.840;0.214;2023-04-03T03:47:26;5.32;;;3.00;;
34902;SDS011;21114;44.840;0.214;2023-04-03T03:49:52;5.15;;;2.35;;
34902;SDS011;21114;44.840;0.214;2023-04-03T03:52:18;8.35;;;2.40;;
34902;SDS011;21114;44.840;0.214;2023-04-03T03:54:44;4.00;;;2.38;;
34902;SDS011;21114;44.840;0.214;2023-04-03T03:57:10;6.93;;;3.70;;
34902;SDS011;21114;44.840;0.214;2023-04-03T03:59:36;5.53;;;2.45;;
34902;SDS011;21114;44.840;0.214;2023-04-03T04:02:02;6.28;;;3.10;;
34902;SDS011;21114;44.840;0.214;2023-04-03T04:04:28;6.93;;;2.75;;
34902;SDS011;21114;44.840;0.214;2023-04-03T04:06:57;5.88;;;2.70;;
34902;SDS011;21114;44.840;0.214;2023-04-03T04:09:25;7.32;;;3.25;;
34902;SDS011;21114;44.840;0.214;2023-04-03T04:11:51;5.65;;;2.42;;
34902;SDS011;21114;44.840;0.214;2023-04-03T04:14:17;8.52;;;4.88;;
34902;SDS011;21114;44.840;0.214;2023-04-03T04:16:45;8.05;;;3.55;;
34902;SDS011;21114;44.840;0.214;2023-04-03T04:19:11;7.43;;;2.72;;
34902;SDS011;21114;44.840;0.214;2023-04-03T04:21:37;14.50;;;4.75;;
34902;SDS011;21114;44.840;0.214;2023-04-03T04:24:04;14.25;;;3.30;;
34902;SDS011;21114;44.840;0.214;2023-04-03T04:26:30;4.45;;;3.05;;
34902;SDS011;21114;44.840;0.214;2023-04-03T04:28:56;8.18;;;4.07;;
34902;SDS011;21114;44.840;0.214;2023-04-03T04:31:22;4.20;;;3.03;;
34902;SDS011;21114;44.840;0.214;2023-04-03T04:33:48;12.13;;;3.63;;
34902;SDS011;21114;44.840;0.214;2023-04-03T04:36:14;5.70;;;3.20;;
34902;SDS011;21114;44.840;0.214;2023-04-03T04:38:41;9.20;;;2.75;;
34902;SDS011;21114;44.840;0.214;2023-04-03T04:41:07;11.73;;;4.50;;
34902;SDS011;21114;44.840;0.214;2023-04-03T04:43:33;5.97;;;3.03;;
34902;SDS011;21114;44.840;0.214;2023-04-03T04:46:00;10.07;;;4.00;;
34902;SDS011;21114;44.840;0.214;2023-04-03T04:49:14;7.07;;;3.17;;
34902;SDS011;21114;44.840;0.214;2023-04-03T04:52:29;5.28;;;2.35;;
34902;SDS011;21114;44.840;0.214;2023-04-03T04:54:55;6.93;;;3.42;;
34902;SDS011;21114;44.840;0.214;2023-04-03T04:57:21;6.97;;;2.85;;
34902;SDS011;21114;44.840;0.214;2023-04-03T04:59:47;6.80;;;3.08;;
34902;SDS011;21114;44.840;0.214;2023-04-03T05:02:13;8.75;;;2.95;;
34902;SDS011;21114;44.840;0.214;2023-04-03T05:04:40;7.90;;;3.85;;
34902;SDS011;21114;44.840;0.214;2023-04-03T05:07:06;7.25;;;2.90;;
34902;SDS011;21114;44.840;0.214;2023-04-03T05:09:32;8.70;;;3.63;;
34902;SDS011;21114;44.840;0.214;2023-04-03T05:11:58;8.27;;;2.90;;
34902;SDS011;21114;44.840;0.214;2023-04-03T05:14:24;8.18;;;3.53;;
34902;SDS011;21114;44.840;0.214;2023-04-03T05:16:50;4.53;;;3.13;;
34902;SDS011;21114;44.840;0.214;2023-04-03T05:19:19;8.05;;;2.88;;
34902;SDS011;21114;44.840;0.214;2023-04-03T05:21:45;13.52;;;3.65;;
34902;SDS011;21114;44.840;0.214;2023-04-03T05:24:59;9.00;;;3.97;;
34902;SDS011;21114;44.840;0.214;2023-04-03T05:27:25;6.40;;;3.10;;
34902;SDS011;21114;44.840;0.214;2023-04-03T05:29:53;6.18;;;3.25;;
34902;SDS011;21114;44.840;0.214;2023-04-03T05:33:08;8.15;;;3.85;;
34902;SDS011;21114;44.840;0.214;2023-04-03T05:35:35;6.15;;;3.03;;
34902;SDS011;21114;44.840;0.214;2023-04-03T05:38:35;6.13;;;4.30;;
34902;SDS011;21114;44.840;0.214;2023-04-03T05:41:01;8.00;;;2.83;;
34902;SDS011;21114;44.840;0.214;2023-04-03T05:43:27;4.40;;;2.63;;
34902;SDS011;21114;44.840;0.214;2023-04-03T05:45:53;5.55;;;2.78;;
34902;SDS011;21114;44.840;0.214;2023-04-03T05:48:20;13.98;;;9.93;;
34902;SDS011;21114;44.840;0.214;2023-04-03T05:50:46;7.22;;;3.78;;
34902;SDS011;21114;44.840;0.214;2023-04-03T05:53:14;3.63;;;2.35;;
34902;SDS011;21114;44.840;0.214;2023-04-03T05:56:30;8.43;;;2.92;;
34902;SDS011;21114;44.840;0.214;2023-04-03T05:58:56;5.57;;;2.70;;
34902;SDS011;21114;44.840;0.214;2023-04-03T06:01:22;4.80;;;2.17;;
34902;SDS011;21114;44.840;0.214;2023-04-03T06:03:49;7.85;;;2.65;;
34902;SDS011;21114;44.840;0.214;2023-04-03T06:06:15;7.25;;;4.53;;
34902;SDS011;21114;44.840;0.214;2023-04-03T06:08:41;10.65;;;5.70;;
34902;SDS011;21114;44.840;0.214;2023-04-03T06:11:08;8.15;;;3.70;;
34902;SDS011;21114;44.840;0.214;2023-04-03T06:13:35;10.68;;;5.20;;
34902;SDS011;21114;44.840;0.214;2023-04-03T06:16:01;8.93;;;4.85;;
34902;SDS011;21114;44.840;0.214;2023-04-03T06:18:27;9.68;;;5.25;;
34902;SDS011;21114;44.840;0.214;2023-04-03T06:20:53;7.22;;;2.80;;
34902;SDS011;21114;44.840;0.214;2023-04-03T06:23:19;4.85;;;2.60;;
34902;SDS011;21114;44.840;0.214;2023-04-03T06:25:45;7.75;;;3.45;;
34902;SDS011;21114;44.840;0.214;2023-04-03T06:28:12;5.05;;;2.95;;
34902;SDS011;21114;44.840;0.214;2023-04-03T06:30:38;6.60;;;2.40;;
34902;SDS011;21114;44.840;0.214;2023-04-03T06:33:04;6.65;;;2.50;;
34902;SDS011;21114;44.840;0.214;2023-04-03T06:35:30;8.05;;;3.88;;
34902;SDS011;21114;44.840;0.214;2023-04-03T06:37:56;7.85;;;2.72;;
34902;SDS011;21114;44.840;0.214;2023-04-03T06:40:23;6.85;;;2.90;;
34902;SDS011;21114;44.840;0.214;2023-04-03T06:43:38;5.35;;;2.83;;
34902;SDS011;21114;44.840;0.214;2023-04-03T06:46:04;5.80;;;3.20;;
34902;SDS011;21114;44.840;0.214;2023-04-03T06:48:30;9.82;;;3.03;;
34902;SDS011;21114;44.840;0.214;2023-04-03T06:50:56;7.07;;;3.42;;
34902;SDS011;21114;44.840;0.214;2023-04-03T06:53:23;10.52;;;3.13;;
34902;SDS011;21114;44.840;0.214;2023-04-03T06:55:49;4.10;;;2.03;;
34902;SDS011;21114;44.840;0.214;2023-04-03T06:58:15;6.85;;;2.70;;
34902;SDS011;21114;44.840;0.214;2023-04-03T07:00:42;9.65;;;3.92;;
34902;SDS011;21114;44.840;0.214;2023-04-03T07:03:08;9.73;;;2.65;;
34902;SDS011;21114;44.840;0.214;2023-04-03T07:05:34;6.97;;;3.15;;
34902;SDS011;21114;44.840;0.214;2023-04-03T07:08:00;3.70;;;2.22;;
34902;SDS011;21114;44.840;0.214;2023-04-03T07:10:26;11.25;;;4.80;;
34902;SDS011;21114;44.840;0.214;2023-04-03T07:12:52;3.90;;;2.08;;
34902;SDS011;21114;44.840;0.214;2023-04-03T07:15:18;6.00;;;2.72;;
34902;SDS011;21114;44.840;0.214;2023-04-03T07:17:44;6.03;;;3.75;;
34902;SDS011;21114;44.840;0.214;2023-04-03T07:20:11;11.10;;;2.95;;
34902;SDS011;21114;44.840;0.214;2023-04-03T07:22:38;4.05;;;2.53;;
34902;SDS011;21114;44.840;0.214;2023-04-03T07:25:04;9.13;;;3.05;;
34902;SDS011;21114;44.840;0.214;2023-04-03T07:27:32;7.03;;;2.38;;
34902;SDS011;21114;44.840;0.214;2023-04-03T07:29:58;6.03;;;2.63;;
34902;SDS011;21114;44.840;0.214;2023-04-03T07:32:24;6.30;;;2.33;;
34902;SDS011;21114;44.840;0.214;2023-04-03T07:34:50;8.48;;;2.50;;
34902;SDS011;21114;44.840;0.214;2023-04-03T07:37:16;6.93;;;3.60;;
34902;SDS011;21114;44.840;0.214;2023-04-03T07:39:43;8.20;;;4.72;;
34902;SDS011;21114;44.840;0.214;2023-04-03T07:42:34;7.30;;;2.33;;
34902;SDS011;21114;44.840;0.214;2023-04-03T07:45:01;10.23;;;3.83;;
34902;SDS011;21114;44.840;0.214;2023-04-03T07:47:27;8.00;;;4.70;;
34902;SDS011;21114;44.840;0.214;2023-04-03T07:49:53;3.10;;;2.15;;
34902;SDS011;21114;44.840;0.214;2023-04-03T07:52:19;7.43;;;3.25;;
34902;SDS011;21114;44.840;0.214;2023-04-03T07:54:46;5.35;;;3.10;;
34902;SDS011;21114;44.840;0.214;2023-04-03T07:57:12;6.35;;;2.90;;
34902;SDS011;21114;44.840;0.214;2023-04-03T07:59:38;7.55;;;2.88;;
34902;SDS011;21114;44.840;0.214;2023-04-03T08:02:07;8.23;;;3.25;;
34902;SDS011;21114;44.840;0.214;2023-04-03T08:05:22;5.05;;;2.58;;
34902;SDS011;21114;44.840;0.214;2023-04-03T08:07:48;8.60;;;3.20;;
34902;SDS011;21114;44.840;0.214;2023-04-03T08:10:14;14.77;;;6.13;;
34902;SDS011;21114;44.840;0.214;2023-04-03T08:12:41;7.82;;;4.78;;
34902;SDS011;21114;44.840;0.214;2023-04-03T08:15:07;9.18;;;3.78;;
34902;SDS011;21114;44.840;0.214;2023-04-03T08:18:23;11.32;;;3.50;;
34902;SDS011;21114;44.840;0.214;2023-04-03T08:20:51;6.95;;;2.55;;
34902;SDS011;21114;44.840;0.214;2023-04-03T08:23:17;11.88;;;4.30;;
34902;SDS011;21114;44.840;0.214;2023-04-03T08:26:32;8.43;;;4.00;;
34902;SDS011;21114;44.840;0.214;2023-04-03T08:28:58;7.28;;;3.28;;
34902;SDS011;21114;44.840;0.214;2023-04-03T08:31:24;6.20;;;2.78;;
34902;SDS011;21114;44.840;0.214;2023-04-03T08:33:50;6.30;;;3.03;;
34902;SDS011;21114;44.840;0.214;2023-04-03T08:36:19;9.88;;;3.95;;
34902;SDS011;21114;44.840;0.214;2023-04-03T08:39:34;7.28;;;2.38;;
34902;SDS011;21114;44.840;0.214;2023-04-03T08:42:02;8.65;;;2.47;;
34902;SDS011;21114;44.840;0.214;2023-04-03T08:45:22;5.35;;;2.20;;
34902;SDS011;21114;44.840;0.214;2023-04-03T08:48:31;7.15;;;3.33;;
34902;SDS011;21114;44.840;0.214;2023-04-03T08:51:35;7.45;;;2.67;;
34902;SDS011;21114;44.840;0.214;2023-04-03T08:54:03;8.65;;;2.85;;
34902;SDS011;21114;44.840;0.214;2023-04-03T08:57:20;4.75;;;2.08;;
34902;SDS011;21114;44.840;0.214;2023-04-03T09:00:41;5.88;;;2.42;;
34902;SDS011;21114;44.840;0.214;2023-04-03T09:03:58;6.97;;;2.50;;
34902;SDS011;21114;44.840;0.214;2023-04-03T09:07:17;6.60;;;2.78;;
34902;SDS011;21114;44.840;0.214;2023-04-03T09:10:35;7.30;;;2.85;;
34902;SDS011;21114;44.840;0.214;2023-04-03T09:16:39;5.85;;;2.72;;
34902;SDS011;21114;44.840;0.214;2023-04-03T09:19:58;3.85;;;2.00;;
34902;SDS011;21114;44.840;0.214;2023-04-03T09:23:14;5.05;;;1.98;;
34902;SDS011;21114;44.840;0.214;2023-04-03T09:26:32;8.32;;;2.55;;
34902;SDS011;21114;44.840;0.214;2023-04-03T09:29:39;8.32;;;1.75;;
34902;SDS011;21114;44.840;0.214;2023-04-03T09:32:55;10.15;;;2.03;;
34902;SDS011;21114;44.840;0.214;2023-04-03T09:36:10;6.22;;;3.28;;
34902;SDS011;21114;44.840;0.214;2023-04-03T09:38:36;4.40;;;1.58;;
34902;SDS011;21114;44.840;0.214;2023-04-03T09:44:36;5.57;;;3.00;;
34902;SDS011;21114;44.840;0.214;2023-04-03T09:48:04;3.13;;;1.83;;
34902;SDS011;21114;44.840;0.214;2023-04-03T09:51:19;4.55;;;2.63;;
34902;SDS011;21114;44.840;0.214;2023-04-03T09:53:45;2.83;;;1.33;;
34902;SDS011;21114;44.840;0.214;2023-04-03T09:56:20;4.97;;;2.20;;
34902;SDS011;21114;44.840;0.214;2023-04-03T09:59:35;4.78;;;1.70;;
34902;SDS011;21114;44.840;0.214;2023-04-03T10:13:49;2.88;;;1.10;;
34902;SDS011;21114;44.840;0.214;2023-04-03T10:27:55;1.38;;;0.98;;
34902;SDS011;21114;44.840;0.214;2023-04-03T10:36:46;16.55;;;4.07;;
34902;SDS011;21114;44.840;0.214;2023-04-03T10:42:12;3.38;;;1.48;;
34902;SDS011;21114;44.840;0.214;2023-04-03T10:48:11;4.57;;;2.97;;
34902;SDS011;21114;44.840;0.214;2023-04-03T10:57:07;4.18;;;1.20;;
34902;SDS011;21114;44.840;0.214;2023-04-03T11:00:25;4.45;;;1.88;;
34902;SDS011;21114;44.840;0.214;2023-04-03T11:03:43;4.22;;;1.50;;
34902;SDS011;21114;44.840;0.214;2023-04-03T11:09:35;4.53;;;2.42;;
34902;SDS011;21114;44.840;0.214;2023-04-03T11:12:52;4.20;;;1.27;;
34902;SDS011;21114;44.840;0.214;2023-04-03T11:16:08;3.47;;;1.90;;
34902;SDS011;21114;44.840;0.214;2023-04-03T11:18:37;4.63;;;1.63;;
34902;SDS011;21114;44.840;0.214;2023-04-03T11:21:56;8.63;;;1.58;;
34902;SDS011;21114;44.840;0.214;2023-04-03T11:27:49;4.53;;;1.75;;
34902;SDS011;21114;44.840;0.214;2023-04-03T11:31:09;5.63;;;2.10;;
34902;SDS011;21114;44.840;0.214;2023-04-03T11:37:04;3.60;;;1.42;;
34902;SDS011;21114;44.840;0.214;2023-04-03T11:40:22;3.88;;;1.38;;
34902;SDS011;21114;44.840;0.214;2023-04-03T11:42:52;3.42;;;1.50;;
34902;SDS011;21114;44.840;0.214;2023-04-03T11:48:02;2.22;;;1.42;;
34902;SDS011;21114;44.840;0.214;2023-04-03T11:54:34;3.42;;;2.03;;
34902;SDS011;21114;44.840;0.214;2023-04-03T11:57:45;4.25;;;1.83;;
34902;SDS011;21114;44.840;0.214;2023-04-03T12:01:01;2.05;;;1.00;;
34902;SDS011;21114;44.840;0.214;2023-04-03T12:08:47;6.50;;;1.50;;
34902;SDS011;21114;44.840;0.214;2023-04-03T12:12:21;2.10;;;1.10;;
34902;SDS011;21114;44.840;0.214;2023-04-03T12:21:08;12.77;;;2.75;;
34902;SDS011;21114;44.840;0.214;2023-04-03T12:27:03;5.55;;;2.08;;
34902;SDS011;21114;44.840;0.214;2023-04-03T12:30:22;4.15;;;1.67;;
34902;SDS011;21114;44.840;0.214;2023-04-03T12:36:37;5.65;;;1.48;;
34902;SDS011;21114;44.840;0.214;2023-04-03T12:47:49;2.40;;;1.42;;
34902;SDS011;21114;44.840;0.214;2023-04-03T12:51:05;10.52;;;1.95;;
34902;SDS011;21114;44.840;0.214;2023-04-03T12:53:32;2.97;;;1.15;;
34902;SDS011;21114;44.840;0.214;2023-04-03T12:56:47;3.83;;;1.38;;
34902;SDS011;21114;44.840;0.214;2023-04-03T12:59:15;2.05;;;1.40;;
34902;SDS011;21114;44.840;0.214;2023-04-03T13:02:31;2.50;;;1.70;;
34902;SDS011;21114;44.840;0.214;2023-04-03T13:05:46;2.20;;;1.48;;
34902;SDS011;21114;44.840;0.214;2023-04-03T13:08:12;2.42;;;1.42;;
34902;SDS011;21114;44.840;0.214;2023-04-03T13:11:30;4.55;;;1.70;;
34902;SDS011;21114;44.840;0.214;2023-04-03T13:17:39;1.98;;;1.30;;
34902;SDS011;21114;44.840;0.214;2023-04-03T13:20:56;6.63;;;3.03;;
34902;SDS011;21114;44.840;0.214;2023-04-03T13:24:11;2.40;;;1.58;;
34902;SDS011;21114;44.840;0.214;2023-04-03T13:27:30;4.30;;;1.83;;
34902;SDS011;21114;44.840;0.214;2023-04-03T13:31:18;3.03;;;1.38;;
34902;SDS011;21114;44.840;0.214;2023-04-03T13:34:20;5.20;;;1.70;;
34902;SDS011;21114;44.840;0.214;2023-04-03T13:39:29;2.20;;;1.20;;
34902;SDS011;21114;44.840;0.214;2023-04-03T13:42:44;3.00;;;1.60;;
34902;SDS011;21114;44.840;0.214;2023-04-03T13:48:06;1.30;;;1.20;;
34902;SDS011;21114;44.840;0.214;2023-04-03T13:51:22;3.28;;;1.48;;
34902;SDS011;21114;44.840;0.214;2023-04-03T13:54:34;1.50;;;1.20;;
34902;SDS011;21114;44.840;0.214;2023-04-03T13:57:55;3.53;;;2.03;;
34902;SDS011;21114;44.840;0.214;2023-04-03T14:01:11;1.83;;;1.15;;
34902;SDS011;21114;44.840;0.214;2023-04-03T14:04:30;2.80;;;1.40;;
34902;SDS011;21114;44.840;0.214;2023-04-03T14:07:35;2.08;;;0.90;;
34902;SDS011;21114;44.840;0.214;2023-04-03T14:10:02;1.38;;;1.25;;
34902;SDS011;21114;44.840;0.214;2023-04-03T14:12:36;2.28;;;1.42;;
34902;SDS011;21114;44.840;0.214;2023-04-03T14:15:52;1.60;;;0.95;;
34902;SDS011;21114;44.840;0.214;2023-04-03T14:18:19;1.27;;;1.10;;
34902;SDS011;21114;44.840;0.214;2023-04-03T14:21:12;1.98;;;1.00;;
34902;SDS011;21114;44.840;0.214;2023-04-03T14:24:27;1.10;;;1.00;;
34902;SDS011;21114;44.840;0.214;2023-04-03T14:26:54;2.00;;;1.42;;
34902;SDS011;21114;44.840;0.214;2023-04-03T14:30:12;1.08;;;0.70;;
34902;SDS011;21114;44.840;0.214;2023-04-03T14:33:27;1.52;;;1.08;;
34902;SDS011;21114;44.840;0.214;2023-04-03T14:35:56;1.35;;;1.00;;
34902;SDS011;21114;44.840;0.214;2023-04-03T14:41:01;0.80;;;0.50;;
34902;SDS011;21114;44.840;0.214;2023-04-03T14:43:28;1.17;;;0.57;;
34902;SDS011;21114;44.840;0.214;2023-04-03T14:45:54;1.08;;;0.98;;
34902;SDS011;21114;44.840;0.214;2023-04-03T14:49:12;1.45;;;1.02;;
34902;SDS011;21114;44.840;0.214;2023-04-03T14:52:29;1.67;;;0.88;;
34902;SDS011;21114;44.840;0.214;2023-04-03T14:55:47;1.17;;;0.80;;
34902;SDS011;21114;44.840;0.214;2023-04-03T14:59:02;0.90;;;0.65;;
34902;SDS011;21114;44.840;0.214;2023-04-03T15:01:28;1.23;;;0.80;;
34902;SDS011;21114;44.840;0.214;2023-04-03T15:03:54;1.55;;;1.00;;
34902;SDS011;21114;44.840;0.214;2023-04-03T15:06:20;0.70;;;0.60;;
34902;SDS011;21114;44.840;0.214;2023-04-03T15:08:47;0.65;;;0.50;;
34902;SDS011;21114;44.840;0.214;2023-04-03T15:11:39;3.20;;;0.75;;
34902;SDS011;21114;44.840;0.214;2023-04-03T15:14:07;1.10;;;1.00;;
34902;SDS011;21114;44.840;0.214;2023-04-03T15:17:22;3.78;;;1.35;;
34902;SDS011;21114;44.840;0.214;2023-04-03T15:19:48;0.73;;;0.60;;
34902;SDS011;21114;44.840;0.214;2023-04-03T15:22:16;1.77;;;1.08;;
34902;SDS011;21114;44.840;0.214;2023-04-03T15:25:31;1.33;;;0.93;;
34902;SDS011;21114;44.840;0.214;2023-04-03T15:28:34;0.90;;;0.75;;
34902;SDS011;21114;44.840;0.214;2023-04-03T15:31:49;1.55;;;1.05;;
34902;SDS011;21114;44.840;0.214;2023-04-03T15:34:18;2.05;;;1.10;;
34902;SDS011;21114;44.840;0.214;2023-04-03T15:37:33;1.90;;;1.33;;
34902;SDS011;21114;44.840;0.214;2023-04-03T15:39:59;1.25;;;0.90;;
34902;SDS011;21114;44.840;0.214;2023-04-03T15:42:25;1.08;;;0.88;;
34902;SDS011;21114;44.840;0.214;2023-04-03T15:44:51;1.20;;;1.00;;
34902;SDS011;21114;44.840;0.214;2023-04-03T15:47:17;6.63;;;1.67;;
34902;SDS011;21114;44.840;0.214;2023-04-03T15:49:44;1.15;;;0.75;;
34902;SDS011;21114;44.840;0.214;2023-04-03T15:52:10;1.63;;;1.20;;
34902;SDS011;21114;44.840;0.214;2023-04-03T15:54:36;1.30;;;0.70;;
34902;SDS011;21114;44.840;0.214;2023-04-03T15:57:02;1.20;;;0.95;;
34902;SDS011;21114;44.840;0.214;2023-04-03T15:59:28;0.82;;;0.82;;
34902;SDS011;21114;44.840;0.214;2023-04-03T16:01:56;1.17;;;1.08;;
34902;SDS011;21114;44.840;0.214;2023-04-03T16:04:23;1.15;;;1.00;;
34902;SDS011;21114;44.840;0.214;2023-04-03T16:06:49;1.15;;;0.98;;
34902;SDS011;21114;44.840;0.214;2023-04-03T16:09:15;1.10;;;1.00;;
34902;SDS011;21114;44.840;0.214;2023-04-03T16:11:42;1.73;;;1.17;;
34902;SDS011;21114;44.840;0.214;2023-04-03T16:14:08;1.40;;;1.30;;
34902;SDS011;21114;44.840;0.214;2023-04-03T16:16:35;1.58;;;1.48;;
34902;SDS011;21114;44.840;0.214;2023-04-03T16:19:55;1.63;;;1.35;;
34902;SDS011;21114;44.840;0.214;2023-04-03T16:23:10;2.67;;;2.33;;
34902;SDS011;21114;44.840;0.214;2023-04-03T16:26:25;1.58;;;1.17;;
34902;SDS011;21114;44.840;0.214;2023-04-03T16:28:52;1.80;;;1.52;;
34902;SDS011;21114;44.840;0.214;2023-04-03T16:31:33;1.40;;;1.23;;
34902;SDS011;21114;44.840;0.214;2023-04-03T16:33:59;2.72;;;1.73;;
34902;SDS011;21114;44.840;0.214;2023-04-03T16:36:26;1.67;;;1.20;;
34902;SDS011;21114;44.840;0.214;2023-04-03T16:38:52;1.70;;;1.45;;
34902;SDS011;21114;44.840;0.214;2023-04-03T16:41:18;1.90;;;1.55;;
34902;SDS011;21114;44.840;0.214;2023-04-03T16:43:44;1.90;;;1.25;;
34902;SDS011;21114;44.840;0.214;2023-04-03T16:46:10;2.97;;;1.30;;
34902;SDS011;21114;44.840;0.214;2023-04-03T16:48:36;4.03;;;1.67;;
34902;SDS011;21114;44.840;0.214;2023-04-03T16:51:03;1.80;;;1.60;;
34902;SDS011;21114;44.840;0.214;2023-04-03T16:53:29;2.97;;;1.60;;
34902;SDS011;21114;44.840;0.214;2023-04-03T16:55:56;1.30;;;1.20;;
34902;SDS011;21114;44.840;0.214;2023-04-03T16:59:11;2.22;;;1.63;;
34902;SDS011;21114;44.840;0.214;2023-04-03T17:01:37;2.33;;;2.10;;
34902;SDS011;21114;44.840;0.214;2023-04-03T17:04:03;1.88;;;1.65;;
34902;SDS011;21114;44.840;0.214;2023-04-03T17:06:30;2.00;;;1.77;;
34902;SDS011;21114;44.840;0.214;2023-04-03T17:09:44;2.03;;;1.67;;
34902;SDS011;21114;44.840;0.214;2023-04-03T17:12:10;2.13;;;1.50;;
34902;SDS011;21114;44.840;0.214;2023-04-03T17:14:36;2.03;;;1.58;;
34902;SDS011;21114;44.840;0.214;2023-04-03T17:17:03;3.13;;;1.40;;
34902;SDS011;21114;44.840;0.214;2023-04-03T17:19:29;3.20;;;2.50;;
34902;SDS011;21114;44.840;0.214;2023-04-03T17:21:56;1.92;;;1.55;;
34902;SDS011;21114;44.840;0.214;2023-04-03T17:24:22;1.98;;;1.27;;
34902;SDS011;21114;44.840;0.214;2023-04-03T17:26:48;2.35;;;1.75;;
34902;SDS011;21114;44.840;0.214;2023-04-03T17:29:14;1.70;;;1.60;;
34902;SDS011;21114;44.840;0.214;2023-04-03T17:31:40;1.80;;;1.20;;
34902;SDS011;21114;44.840;0.214;2023-04-03T17:34:06;2.22;;;1.15;;
34902;SDS011;21114;44.840;0.214;2023-04-03T17:37:21;2.17;;;1.23;;
34902;SDS011;21114;44.840;0.214;2023-04-03T17:39:47;1.40;;;1.05;;
34902;SDS011;21114;44.840;0.214;2023-04-03T17:42:13;2.05;;;1.40;;
34902;SDS011;21114;44.840;0.214;2023-04-03T17:44:40;1.63;;;1.30;;
34902;SDS011;21114;44.840;0.214;2023-04-03T17:47:06;2.30;;;1.15;;
34902;SDS011;21114;44.840;0.214;2023-04-03T17:49:32;2.13;;;1.33;;